Data for 09/05/2009

Time Sea-Level Adjusted Pressure Absolute Pressure Temperature Relative Humidity Dew Point   
(mb) (inHg) (mb) (inHg) (C) (F) (%) (C) (F)
00:05 1019 30.09 848 25.04 19 66.1 34 2.9 37.2
00:10 1019 30.09 848 25.04 19 66.3 41 5.6 42
00:15 1019 30.09 848 25.04 18.3 65 39 4.2 39.5
00:20 1019 30.09 848 25.04 18.1 64.7 38 3.7 38.6
00:25 1019 30.09 848 25.04 18.2 64.8 37 3.4 38.2
00:30 1019 30.09 848 25.04 18.2 64.7 40 4.5 40.2
00:35 1019 30.09 848 25.04 17.8 64 40 4 39.2
00:40 1019 30.09 848 25.04 17 62.6 45 4.9 40.9
00:45 1019 30.09 848 25.04 17.2 62.9 35 1.8 35.2
00:50 1019 30.09 848 25.04 17.9 64.1 39 4 39.2
00:55 1019 30.09 848 25.04 17 62.6 39 2.9 37.3
01:00 1019 30.09 848 25.04 17.2 62.9 36 1.9 35.5
01:05 1019 30.09 848 25.04 17.5 63.6 36 2.5 36.5
01:10 1019 30.09 848 25.04 17.2 63 37 2.5 36.4
01:15 1019 30.09 848 25.04 17 62.7 39 3 37.5
01:20 1019 30.09 848 25.04 16.5 61.7 39 2.8 37
01:25 1019 30.09 848 25.04 16.4 61.4 42 3.4 38.1
01:30 1019 30.09 848 25.04 16.4 61.6 40 2.8 37
01:35 1019 30.09 848 25.04 16.6 61.9 38 2.2 35.9
01:40 1019 30.09 848 25.04 16.7 62.1 38 2.3 36.2
01:45 1019 30.09 848 25.04 16.6 61.8 38 2.5 36.5
01:50 1019 30.09 848 25.04 16.7 62.1 38 2.6 36.6
01:55 1018 30.06 848 25.04 16.5 61.7 40 3 37.3
02:00 1018 30.06 848 25.04 16.5 61.7 42 3.5 38.3
02:05 1018 30.06 848 25.04 16.5 61.6 40 2.9 37.3
02:10 1018 30.06 848 25.04 16.5 61.6 37 1.7 35
02:15 1018 30.06 848 25.04 16.9 62.4 33 0.7 33.2
02:20 1018 30.06 848 25.04 17.8 64 30 0.2 32.3
02:25 1018 30.06 847 25.01 18.4 65.1 30 0.4 32.7
02:30 1018 30.06 847 25.01 18.6 65.5 28 0 32.1
02:35 1018 30.06 847 25.01 18.9 66 27 -0.4 31.3
02:40 1018 30.06 847 25.01 19.3 66.7 27 -0.3 31.5
02:45 1018 30.06 847 25.01 19.2 66.6 27 0 32
02:50 1018 30.06 847 25.01 19.1 66.4 27 -0.2 31.7
02:55 1018 30.06 847 25.01 19.1 66.4 27 0.1 32.1
03:00 1018 30.06 847 25.01 18.9 66 28 0 32.1
03:05 1018 30.06 847 25.01 19.1 66.3 27 -0.2 31.7
03:10 1018 30.06 847 25.01 19 66.2 28 0 32
03:15 1018 30.06 847 25.01 18.7 65.7 28 -0.1 31.9
03:20 1018 30.06 847 25.01 18.6 65.5 28 0 32.1
03:25 1018 30.06 848 25.04 18.4 65 31 1.1 34
03:30 1018 30.06 848 25.04 18.2 64.7 29 0.1 32.2
03:35 1018 30.06 848 25.04 17.9 64.1 31 0.5 33
03:40 1018 30.06 848 25.04 17.7 63.8 32 0.7 33.2
03:45 1018 30.06 848 25.04 17.6 63.7 32 0.7 33.2
03:50 1018 30.06 847 25.01 17.4 63.2 32 0.8 33.4
03:55 1018 30.06 847 25.01 17.2 62.9 32 0.7 33.2
04:00 1018 30.06 847 25.01 17.1 62.7 37 2.2 36
04:05 1018 30.06 848 25.04 17.1 62.9 35 1.8 35.3
04:10 1018 30.06 847 25.01 17.4 63.2 33 1.2 34.1
04:15 1018 30.06 847 25.01 17 62.7 38 2.9 37.2
04:20 1018 30.06 848 25.04 16.2 61.2 42 3.3 37.9
04:25 1018 30.06 848 25.04 15.5 59.9 45 3.8 38.9
04:30 1018 30.06 848 25.04 15.8 60.5 39 2.1 35.8
04:35 1018 30.06 848 25.04 16.5 61.7 36 1.4 34.4
04:40 1018 30.06 848 25.04 16.8 62.3 40 3.4 38.2
04:45 1018 30.06 848 25.04 16.5 61.8 43 3.9 39.1
04:50 1018 30.06 848 25.04 16.2 61.1 45 4.3 39.7
04:55 1018 30.06 848 25.04 15.9 60.7 39 1.9 35.5
05:00 1019 30.09 848 25.04 16 60.7 39 2.2 36
05:05 1019 30.09 848 25.04 16.1 61 42 3.3 37.9
05:10 1019 30.09 848 25.04 15.6 60 43 3.2 37.8
05:15 1019 30.09 848 25.04 15.1 59.2 45 3.3 37.9
05:20 1019 30.09 848 25.04 14.5 58.1 48 3.7 38.7
05:25 1018 30.06 848 25.04 14.2 57.5 48 3.4 38.2
05:30 1019 30.09 848 25.04 14.1 57.4 48 3.5 38.3
05:35 1019 30.09 848 25.04 14.5 58.1 41 1.5 34.6
05:40 1019 30.09 848 25.04 15.7 60.3 39 2 35.6
05:45 1019 30.09 848 25.04 15.6 60 40 2.2 36
05:50 1019 30.09 848 25.04 15.3 59.6 42 2.4 36.4
05:55 1019 30.09 848 25.04 15.2 59.3 42 2.4 36.3
06:00 1019 30.09 848 25.04 14.9 58.8 43 2.4 36.4
06:05 1019 30.09 848 25.04 14.8 58.7 43 2.4 36.3
06:10 1019 30.09 848 25.04 14.7 58.5 46 3.3 37.9
06:15 1019 30.09 848 25.04 14.3 57.7 46 2.8 37
06:20 1019 30.09 848 25.04 14.2 57.6 45 2.7 36.8
06:25 1019 30.09 848 25.04 14.3 57.7 45 2.5 36.4
06:30 1019 30.09 848 25.04 14.4 58 45 2.6 36.8
06:35 1019 30.09 848 25.04 14.5 58 45 2.8 37
06:40 1019 30.09 848 25.04 14.6 58.2 43 2.2 35.9
06:45 1019 30.09 848 25.04 14.7 58.5 44 2.7 36.9
06:50 1019 30.09 848 25.04 14.3 57.8 45 2.6 36.6
06:55 1019 30.09 848 25.04 14.8 58.7 40 1.5 34.7
07:00 1019 30.09 848 25.04 15.3 59.5 43 2.7 36.9
07:05 1019 30.09 848 25.04 14.7 58.5 45 2.9 37.3
07:10 1019 30.09 848 25.04 14.2 57.6 46 2.9 37.2
07:15 1019 30.09 848 25.04 13.9 57.1 47 2.9 37.3
07:20 1019 30.09 848 25.04 13.8 56.9 47 2.9 37.2
07:25 1019 30.09 848 25.04 13.7 56.7 47 2.7 36.8
07:30 1019 30.09 848 25.04 14.1 57.4 45 2.4 36.3
07:35 1019 30.09 848 25.04 14.6 58.3 45 2.7 36.9
07:40 1019 30.09 848 25.04 14.8 58.7 43 2.5 36.6
07:45 1019 30.09 848 25.04 14.7 58.5 45 3.1 37.7
07:50 1019 30.09 848 25.04 14.7 58.4 45 2.9 37.1
07:55 1019 30.09 848 25.04 14.8 58.7 43 2.5 36.4
08:00 1019 30.09 848 25.04 14.9 58.8 45 3.3 37.9
08:05 1019 30.09 848 25.04 15 59 43 2.6 36.6
08:10 1019 30.09 848 25.04 15.2 59.4 44 3.1 37.5
08:15 1019 30.09 848 25.04 15.5 59.9 43 3.1 37.6
08:20 1019 30.09 848 25.04 15.7 60.2 42 2.8 37.1
08:25 1019 30.09 848 25.04 15.8 60.4 43 3.4 38.1
08:30 1019 30.09 848 25.04 16.1 61 41 2.9 37.2
08:35 1019 30.09 848 25.04 16.3 61.4 42 3.5 38.2
08:40 1019 30.09 848 25.04 16.6 61.9 42 3.7 38.6
08:45 1019 30.09 848 25.04 16.9 62.3 40 3.3 37.9
08:50 1019 30.09 848 25.04 17.2 62.9 42 4.4 39.9
08:55 1019 30.09 848 25.04 17.1 62.9 44 5 40.9
09:00 1019 30.09 848 25.04 17.5 63.4 44 5.2 41.4
09:05 1019 30.09 848 25.04 17.6 63.7 46 6 42.8
09:10 1019 30.09 848 25.04 18 64.3 43 5.2 41.4
09:15 1019 30.09 848 25.04 18.6 65.5 37 3.9 39.1
09:20 1019 30.09 848 25.04 19.2 66.5 38 4.7 40.5
09:25 1019 30.09 848 25.04 20.4 68.7 34 4.1 39.4
09:30 1019 30.09 848 25.04 21 69.8 39 6.7 44
09:35 1019 30.09 848 25.04 19.8 67.6 40 5.8 42.5
09:40 1019 30.09 848 25.04 19.4 67 39 5.4 41.7
09:45 1019 30.09 848 25.04 19.2 66.6 39 5.1 41.1
09:50 1019 30.09 848 25.04 19.3 66.7 39 5.1 41.2
09:55 1019 30.09 848 25.04 19.7 67.5 36 4.4 39.9
10:00 1019 30.09 848 25.04 19.8 67.7 35 4.2 39.5
10:05 1019 30.09 848 25.04 20.4 68.6 32 3.3 37.9
10:10 1019 30.09 848 25.04 20.6 69 31 2.9 37.1
10:15 1019 30.09 848 25.04 21.3 70.3 28 2.4 36.4
10:20 1019 30.09 848 25.04 21.2 70.2 29 2.6 36.6
10:25 1019 30.09 848 25.04 21.5 70.8 28 2.6 36.7
10:30 1019 30.09 848 25.04 21 69.8 30 2.9 37.3
10:35 1019 30.09 848 25.04 21.1 70.1 30 2.9 37.2
10:40 1019 30.09 848 25.04 22.1 71.9 28 3 37.4
10:45 1019 30.09 848 25.04 22.2 72 30 3.8 38.9
10:50 1019 30.09 848 25.04 22.3 72.2 29 3.5 38.3
10:55 1019 30.09 848 25.04 22.3 72.1 29 3.5 38.3
11:00 1019 30.09 848 25.04 22.7 72.9 29 3.8 38.9
11:05 1019 30.09 848 25.04 23.3 73.9 27 3.3 37.9
11:10 1019 30.09 848 25.04 22.7 72.9 28 3.5 38.3
11:15 1019 30.09 848 25.04 23.2 73.8 28 3.9 39
11:20 1019 30.09 848 25.04 23.9 75 27 4.1 39.3
11:25 1019 30.09 848 25.04 23.3 73.9 28 3.9 39
11:30 1019 30.09 848 25.04 23.6 74.4 28 4 39.1
11:35 1019 30.09 848 25.04 24.2 75.5 28 4.6 40.2
11:40 1018 30.06 848 25.04 23.6 74.4 27 3.9 39
11:45 1018 30.06 848 25.04 23.4 74.2 27 3.8 38.9
11:50 1018 30.06 848 25.04 23.7 74.6 26 3.5 38.3
11:55 1018 30.06 847 25.01 23.9 75 27 3.8 38.9
12:00 1018 30.06 847 25.01 25.3 77.5 24 3.5 38.3
12:05 1018 30.06 847 25.01 25.9 78.6 25 4.4 39.9
12:10 1018 30.06 847 25.01 26.5 79.6 23 4 39.1
12:15 1018 30.06 847 25.01 25 77 26 4.2 39.6
12:20 1018 30.06 847 25.01 25.9 78.6 23 3.7 38.7
12:25 1018 30.06 847 25.01 26 78.9 24 3.9 39
12:30 1018 30.06 847 25.01 26.2 79.1 23 3.8 38.8
12:35 1018 30.06 847 25.01 26.5 79.7 22 3.4 38.1
12:40 1018 30.06 847 25.01 25.7 78.3 24 4.1 39.5
12:45 1018 30.06 847 25.01 25.3 77.5 26 4.6 40.2
12:50 1017 30.03 847 25.01 25.6 78.1 25 4.5 40.2
12:55 1017 30.03 847 25.01 25.7 78.3 25 4.6 40.3
13:00 1017 30.03 847 25.01 25.7 78.3 26 4.8 40.6
13:05 1017 30.03 847 25.01 25.5 77.9 26 5 41
13:10 1017 30.03 847 25.01 25.6 78 26 5.2 41.3
13:15 1017 30.03 847 25.01 25.7 78.3 27 5.4 41.7
13:20 1017 30.03 847 25.01 25.5 77.9 27 5.2 41.3
13:25 1018 30.06 847 25.01 24.8 76.6 31 6.9 44.5
13:30 1018 30.06 847 25.01 24 75.2 34 7.3 45.2
13:35 1017 30.03 847 25.01 23.5 74.3 36 7.8 46.1
13:40 1018 30.06 847 25.01 23.6 74.4 35 7.5 45.4
13:45 1018 30.06 847 25.01 23.1 73.6 40 8.9 47.9
13:50 1018 30.06 847 25.01 22.6 72.7 32 5.3 41.5
13:55 1018 30.06 847 25.01 23.4 74.1 30 4.9 40.8
14:00 1018 30.06 847 25.01 23.4 74.1 35 7.1 44.8
14:05 1017 30.03 847 25.01 23.2 73.7 33 6.3 43.4
14:10 1017 30.03 847 25.01 23.7 74.7 32 6.1 42.9
14:15 1018 30.06 847 25.01 24 75.1 34 7.4 45.3
14:20 1018 30.06 847 25.01 23.8 74.8 34 7 44.7
14:25 1017 30.03 847 25.01 23.8 74.9 32 6.5 43.8
14:30 1017 30.03 846 24.98 24 75.2 31 6 42.8
14:35 1017 30.03 846 24.98 24.4 75.9 30 6.1 43
14:40 1017 30.03 846 24.98 24.9 76.9 30 6.3 43.3
14:45 1017 30.03 846 24.98 25.2 77.3 36 9.4 48.9
14:50 1017 30.03 846 24.98 24.8 76.6 38 9.6 49.3
14:55 1017 30.03 846 24.98 25.2 77.3 29 6.1 43
15:00 1017 30.03 846 24.98 25.9 78.5 30 7.3 45.1
15:05 1017 30.03 846 24.98 24.9 76.9 34 8.1 46.6
15:10 1017 30.03 846 24.98 24.1 75.3 36 8.4 47.1
15:15 1017 30.03 846 24.98 24 75.2 34 7.3 45.1
15:20 1016 30 846 24.98 25.3 77.6 31 7.4 45.2
15:25 1016 30 846 24.98 25.9 78.5 30 7.3 45.2
15:30 1016 30 846 24.98 25.7 78.2 29 6.6 43.9
15:35 1016 30 845 24.95 25.9 78.6 27 5.6 42
15:40 1016 30 845 24.95 26 78.9 27 5.9 42.7
15:45 1016 30 845 24.95 26 78.9 27 5.6 42.1
15:50 1016 30 845 24.95 26 78.8 28 6.2 43.2
15:55 1016 30 845 24.95 26.3 79.3 26 5.3 41.6
16:00 1016 30 845 24.95 26.3 79.4 27 6.3 43.4
16:05 1016 30 845 24.95 26.2 79.1 26 5.4 41.7
16:10 1016 30 845 24.95 26.2 79.2 27 5.9 42.7
16:15 1016 30 845 24.95 26.8 80.3 25 5.2 41.3
16:20 1016 30 845 24.95 27.3 81.2 22 4.3 39.7
16:25 1016 30 845 24.95 28 82.3 21 4.2 39.6
16:30 1016 30 845 24.95 27.9 82.2 21 3.8 38.8
16:35 1016 30 845 24.95 27.8 82 21 3.7 38.7
16:40 1016 30 845 24.95 27.7 81.8 23 4.9 40.8
16:45 1016 30 845 24.95 27.4 81.3 24 5.2 41.4
16:50 1016 30 845 24.95 27.2 80.9 24 4.9 40.8
16:55 1016 30 845 24.95 27.1 80.7 26 6.2 43.1
17:00 1016 30 845 24.95 27.3 81.1 24 5.5 41.8
17:05 1016 30 845 24.95 27.8 82 23 5 41
17:10 1016 30 845 24.95 27.8 82 24 5.9 42.7
17:15 1016 30 845 24.95 27.6 81.8 24 5.6 42.1
17:20 1016 30 845 24.95 27.4 81.3 25 6.1 42.9
17:25 1016 30 845 24.95 26.7 80.1 24 4.8 40.7
17:30 1016 30 845 24.95 26.2 79.2 26 5.4 41.7
17:35 1016 30 845 24.95 25.9 78.6 27 5.8 42.4
17:40 1016 30 845 24.95 25.6 78.1 28 6.2 43.2
17:45 1016 30 845 24.95 25 76.9 29 6 42.7
17:50 1016 30 845 24.95 24.6 76.3 29 5.9 42.6
17:55 1016 30 845 24.95 24.4 75.9 30 5.8 42.4
18:00 1016 30 845 24.95 24.3 75.8 28 4.8 40.7
18:05 1016 30 845 24.95 24.5 76 27 4.6 40.2
18:10 1016 30 845 24.95 24.6 76.3 28 5.1 41.3
18:15 1016 30 845 24.95 24.7 76.5 28 5.4 41.8
18:20 1016 30 845 24.95 24.7 76.5 28 5.1 41.1
18:25 1016 30 845 24.95 24.6 76.3 31 6.6 43.9
18:30 1016 30 845 24.95 24.4 75.9 29 5.6 42
18:35 1016 30 845 24.95 24.5 76 29 5.5 42
18:40 1016 30 845 24.95 24.3 75.7 30 6.1 42.9
18:45 1016 30 845 24.95 24 75.1 31 6 42.9
18:50 1016 30 845 24.95 24 75.1 29 5 41.1
18:55 1016 30 845 24.95 24.2 75.5 28 4.8 40.6
19:00 1016 30 845 24.95 24.1 75.4 29 5.4 41.7
19:05 1016 30 845 24.95 24 75.2 29 5.3 41.6
19:10 1016 30 845 24.95 23.8 74.9 30 5.6 42
19:15 1016 30 845 24.95 23.8 74.9 29 5.2 41.3
19:20 1016 30 845 24.95 23.9 75.1 29 5.3 41.5
19:25 1016 30 845 24.95 23.7 74.6 30 5.2 41.3
19:30 1016 30 845 24.95 23.5 74.3 30 5.1 41.2
19:35 1016 30 845 24.95 23.3 73.9 31 5.2 41.4
19:40 1016 30 845 24.95 23.1 73.6 31 5.4 41.6
19:45 1016 30 845 24.95 22.9 73.1 32 5.4 41.7
19:50 1016 30 845 24.95 22.6 72.7 33 5.6 42.1
19:55 1016 30 845 24.95 22.3 72.2 33 5.6 42.1
20:00 1016 30 845 24.95 22.1 71.8 34 5.9 42.6
20:05 1016 30 845 24.95 21.9 71.4 35 6 42.7
20:10 1016 30 845 24.95 21.7 71.1 36 6.2 43.1
20:15 1016 30 845 24.95 21.7 71 35 5.7 42.3
20:20 1016 30 845 24.95 22.1 71.9 32 4.8 40.6
20:25 1016 30 845 24.95 22.6 72.7 32 5.2 41.4
20:30 1016 30 845 24.95 22.4 72.3 32 5.2 41.3
20:35 1016 30 845 24.95 22.6 72.7 31 4.9 40.8
20:40 1016 30 845 24.95 22.7 72.9 30 4.6 40.3
20:45 1016 30 845 24.95 23 73.4 30 4.7 40.4
20:50 1016 30 845 24.95 23.2 73.7 29 4.6 40.2
20:55 1016 30 845 24.95 23.3 73.9 29 4.6 40.2
21:00 1016 30 845 24.95 23.2 73.7 30 5 41
21:05 1016 30 846 24.98 22.9 73.3 30 4.6 40.3
21:10 1016 30 846 24.98 23.1 73.7 30 5 41
21:15 1016 30 846 24.98 22.7 72.9 31 5 40.9
21:20 1016 30 845 24.95 22.5 72.5 32 5.2 41.3
21:25 1016 30 846 24.98 22.3 72.1 32 5 41
21:30 1016 30 845 24.95 22 71.7 33 5.2 41.4
21:35 1016 30 845 24.95 21.8 71.2 33 5.1 41.2
21:40 1016 30 845 24.95 21.7 71 34 5.3 41.5
21:45 1016 30 845 24.95 21.6 70.9 34 5.3 41.5
21:50 1016 30 846 24.98 21.5 70.7 34 5.3 41.6
21:55 1016 30 846 24.98 21.4 70.6 35 5.4 41.8
22:00 1016 30 845 24.95 21.3 70.4 35 5.5 42
22:05 1016 30 845 24.95 21.2 70.2 35 5.5 42
22:10 1016 30 845 24.95 21.2 70.1 36 5.6 42
22:15 1016 30 845 24.95 21.2 70.2 35 5.5 41.9
22:20 1016 30 845 24.95 21.3 70.3 35 5.5 41.9
22:25 1016 30 845 24.95 21.2 70.1 36 5.5 42
22:30 1016 30 845 24.95 21.2 70.2 35 5.3 41.6
22:35 1016 30 845 24.95 21.2 70.2 35 5.4 41.7
22:40 1016 30 845 24.95 21.2 70.2 35 5.3 41.6
22:45 1016 30 845 24.95 21.3 70.3 35 5.3 41.6
22:50 1016 30 845 24.95 21.2 70.2 35 5.3 41.6
22:55 1016 30 845 24.95 21.3 70.3 35 5.2 41.4
23:00 1016 30 845 24.95 21.3 70.4 34 5.2 41.3
23:05 1016 30 845 24.95 21.3 70.4 34 5.2 41.4
23:10 1016 30 845 24.95 21.2 70.2 35 5.3 41.5
23:15 1016 30 845 24.95 21.2 70.2 34 4.9 40.9
23:20 1016 30 845 24.95 21.2 70.2 35 5.3 41.6
23:25 1016 30 845 24.95 21 69.8 36 5.5 41.9
23:30 1016 30 845 24.95 20.9 69.5 36 5.5 41.8
23:35 1016 30 845 24.95 20.8 69.5 39 6.6 43.8
23:40 1016 30 845 24.95 20.9 69.6 35 5.2 41.3
23:45 1016 30 845 24.95 20.8 69.4 36 5.2 41.4
23:50 1016 30 845 24.95 20.8 69.5 36 5.3 41.5
23:55 1016 30 845 24.95 20.7 69.2 37 5.5 41.8
24:00 1016 30 845 24.95 20.3 68.5 38 5.8 42.4